createdAt,value
2023-05-14T00:00:41.004Z,11.70
2023-05-14T00:03:08.738Z,11.83
2023-05-14T00:05:37.847Z,11.00
2023-05-14T00:08:06.093Z,12.40
2023-05-14T00:10:33.741Z,12.73
2023-05-14T00:13:02.194Z,11.30
2023-05-14T00:15:31.266Z,11.50
2023-05-14T00:17:59.934Z,10.80
2023-05-14T00:20:27.541Z,12.30
2023-05-14T00:22:56.554Z,12.27
2023-05-14T00:25:24.348Z,12.37
2023-05-14T00:27:51.914Z,13.27
2023-05-14T00:30:19.732Z,12.07
2023-05-14T00:32:47.354Z,12.63
2023-05-14T00:35:15.417Z,12.07
2023-05-14T00:37:43.128Z,11.90
2023-05-14T00:40:13.518Z,12.93
2023-05-14T00:42:41.126Z,12.47
2023-05-14T00:45:09.514Z,12.97
2023-05-14T00:47:39.263Z,12.10
2023-05-14T00:50:08.252Z,11.90
2023-05-14T00:52:36.002Z,11.13
2023-05-14T00:55:06.858Z,11.83
2023-05-14T00:57:36.955Z,12.27
2023-05-14T01:00:05.757Z,11.43
2023-05-14T01:02:33.424Z,12.40
2023-05-14T01:05:01.688Z,12.57
2023-05-14T01:07:34.450Z,13.67
2023-05-14T01:10:04.726Z,12.27
2023-05-14T01:12:38.739Z,12.20
2023-05-14T01:15:11.877Z,12.48
2023-05-14T01:17:42.455Z,16.23
2023-05-14T01:20:11.476Z,14.15
2023-05-14T01:22:40.453Z,13.00
2023-05-14T01:25:09.071Z,12.60
2023-05-14T01:27:42.114Z,12.43
2023-05-14T01:30:15.405Z,12.67
2023-05-14T01:32:45.694Z,12.37
2023-05-14T01:35:13.891Z,12.90
2023-05-14T01:37:44.971Z,12.63
2023-05-14T01:40:15.331Z,12.23
2023-05-14T01:42:44.718Z,13.00
2023-05-14T01:45:12.605Z,12.35
2023-05-14T01:47:40.297Z,13.23
2023-05-14T01:50:08.292Z,12.90
2023-05-14T01:52:35.882Z,12.10
2023-05-14T01:55:05.978Z,12.63
2023-05-14T01:57:33.691Z,13.80
2023-05-14T02:00:01.420Z,15.65
2023-05-14T02:02:30.384Z,16.02
2023-05-14T02:04:58.036Z,15.05
2023-05-14T02:07:25.918Z,15.03
2023-05-14T02:09:53.627Z,16.35
2023-05-14T02:12:22.858Z,18.25
2023-05-14T02:14:50.459Z,13.50
2023-05-14T02:17:18.079Z,16.13
2023-05-14T02:19:46.216Z,14.35
2023-05-14T02:22:14.382Z,14.68
2023-05-14T02:24:42.083Z,13.65
2023-05-14T02:27:09.661Z,13.75
2023-05-14T02:29:38.617Z,15.98
2023-05-14T02:32:06.852Z,12.68
2023-05-14T02:34:34.913Z,14.75
2023-05-14T02:37:02.863Z,14.52
2023-05-14T02:39:32.408Z,14.63
2023-05-14T02:41:59.978Z,14.25
2023-05-14T02:44:27.576Z,14.93
2023-05-14T02:46:56.630Z,17.25
2023-05-14T02:49:24.706Z,14.18
2023-05-14T02:51:54.178Z,16.48
2023-05-14T02:54:21.871Z,13.63
2023-05-14T02:56:49.466Z,14.55
2023-05-14T02:59:17.057Z,14.45
2023-05-14T03:01:45.250Z,13.30
2023-05-14T03:04:14.673Z,15.45
2023-05-14T03:06:42.352Z,13.82
2023-05-14T03:09:09.990Z,15.60
2023-05-14T03:11:37.599Z,14.90
2023-05-14T03:14:05.151Z,16.15
2023-05-14T03:16:32.953Z,14.93
2023-05-14T03:19:00.764Z,16.45
2023-05-14T03:21:29.805Z,15.27
2023-05-14T03:23:57.550Z,16.83
2023-05-14T03:26:25.124Z,16.30
2023-05-14T03:28:53.803Z,16.08
2023-05-14T03:31:21.686Z,18.00
2023-05-14T03:33:49.493Z,15.93
2023-05-14T03:36:17.079Z,16.35
2023-05-14T03:38:46.016Z,15.77
2023-05-14T03:41:13.905Z,14.60
2023-05-14T03:43:41.666Z,15.40
2023-05-14T03:46:09.460Z,15.95
2023-05-14T03:48:37.045Z,14.90
2023-05-14T03:51:05.913Z,15.77
2023-05-14T03:53:33.493Z,13.70
2023-05-14T03:56:02.426Z,16.35
2023-05-14T03:58:30.118Z,15.27
2023-05-14T04:00:57.823Z,14.77
2023-05-14T04:03:26.259Z,15.60
2023-05-14T04:05:53.918Z,15.70
2023-05-14T04:08:21.503Z,15.18
2023-05-14T04:10:50.948Z,17.35
2023-05-14T04:13:19.911Z,15.55
2023-05-14T04:15:47.502Z,14.60
2023-05-14T04:18:15.172Z,15.30
2023-05-14T04:20:42.820Z,15.70
2023-05-14T04:23:10.448Z,14.38
2023-05-14T04:25:38.044Z,14.20
2023-05-14T04:28:06.019Z,15.25
2023-05-14T04:30:34.927Z,14.73
2023-05-14T04:33:02.557Z,14.80
2023-05-14T04:35:30.279Z,16.60
2023-05-14T04:37:57.937Z,16.48
2023-05-14T04:40:25.765Z,14.73
2023-05-14T04:42:53.493Z,14.77
2023-05-14T04:45:21.195Z,16.92
2023-05-14T04:47:50.414Z,14.70
2023-05-14T04:50:18.471Z,16.40
2023-05-14T04:52:46.039Z,16.17
2023-05-14T04:55:13.642Z,16.65
2023-05-14T04:57:41.263Z,15.88
2023-05-14T05:00:11.117Z,16.10
2023-05-14T05:02:38.744Z,16.17
2023-05-14T05:05:08.664Z,14.88
2023-05-14T05:07:36.274Z,14.80
2023-05-14T05:10:04.321Z,14.80
2023-05-14T05:12:31.917Z,17.02
2023-05-14T05:14:59.532Z,16.30
2023-05-14T05:17:27.122Z,14.80
2023-05-14T05:19:55.216Z,15.87
2023-05-14T05:22:24.467Z,15.00
2023-05-14T05:24:52.023Z,16.20
2023-05-14T05:27:20.943Z,14.07
2023-05-14T05:29:48.645Z,13.30
2023-05-14T05:32:16.224Z,14.80
2023-05-14T05:34:43.817Z,12.70
2023-05-14T05:37:13.441Z,14.47
2023-05-14T05:39:42.380Z,12.70
2023-05-14T05:42:10.381Z,12.83
2023-05-14T05:44:37.919Z,13.43
2023-05-14T05:47:06.082Z,12.10
2023-05-14T05:49:33.724Z,11.73
2023-05-14T05:52:01.317Z,11.60
2023-05-14T05:54:28.962Z,11.10
2023-05-14T05:56:57.968Z,11.20
2023-05-14T05:59:25.614Z,10.23
2023-05-14T06:01:53.368Z,11.00
2023-05-14T06:04:21.182Z,10.57
2023-05-14T06:06:48.762Z,10.40
2023-05-14T06:09:16.933Z,15.23
2023-05-14T06:11:44.492Z,15.80
2023-05-14T06:14:13.446Z,15.27
2023-05-14T06:16:41.044Z,11.50
2023-05-14T06:19:10.050Z,9.10
2023-05-14T06:21:38.020Z,9.77
2023-05-14T06:24:06.314Z,8.37
2023-05-14T06:26:33.906Z,8.30
2023-05-14T06:29:01.489Z,8.10
2023-05-14T06:31:30.609Z,8.23
2023-05-14T06:33:58.189Z,8.10
2023-05-14T06:36:25.790Z,6.83
2023-05-14T06:38:53.342Z,6.90
2023-05-14T06:41:21.176Z,7.20
2023-05-14T06:43:48.759Z,7.30
2023-05-14T06:46:16.372Z,6.27
2023-05-14T06:48:45.802Z,5.97
2023-05-14T06:51:14.120Z,5.60
2023-05-14T06:53:41.840Z,5.60
2023-05-14T06:56:09.415Z,5.40
2023-05-14T06:58:36.969Z,5.43
2023-05-14T07:01:04.899Z,5.30
2023-05-14T07:03:32.476Z,4.90
2023-05-14T07:06:01.386Z,5.30
2023-05-14T07:08:28.953Z,4.73
2023-05-14T07:10:57.269Z,4.40
2023-05-14T07:13:28.324Z,5.10
2023-05-14T07:15:56.586Z,5.57
2023-05-14T07:18:24.345Z,5.20
2023-05-14T07:20:51.934Z,4.47
2023-05-14T07:23:20.846Z,4.50
2023-05-14T07:25:48.702Z,4.80
2023-05-14T07:28:16.313Z,5.10
2023-05-14T07:30:43.927Z,4.67
2023-05-14T07:33:11.606Z,4.23
2023-05-14T07:35:39.254Z,4.23
2023-05-14T07:38:06.927Z,4.33
2023-05-14T07:40:35.862Z,3.50
2023-05-14T07:43:03.432Z,4.80
2023-05-14T07:45:31.044Z,4.10
2023-05-14T07:47:58.727Z,7.73
2023-05-14T07:50:26.531Z,3.90
2023-05-14T07:52:54.309Z,4.20
2023-05-14T07:55:21.908Z,3.43
2023-05-14T07:57:50.885Z,3.70
2023-05-14T08:00:18.893Z,3.23
2023-05-14T08:02:46.596Z,3.00
2023-05-14T08:05:14.304Z,4.00
2023-05-14T08:07:42.029Z,4.30
2023-05-14T08:10:10.545Z,3.80
2023-05-14T08:12:38.852Z,3.37
2023-05-14T08:15:10.375Z,3.37
2023-05-14T08:17:38.084Z,3.40
2023-05-14T08:20:07.567Z,3.03
2023-05-14T08:22:35.197Z,3.23
2023-05-14T08:25:03.778Z,3.63
2023-05-14T08:27:31.352Z,2.63
2023-05-14T08:29:58.919Z,2.60
2023-05-14T08:32:27.936Z,2.93
2023-05-14T08:34:55.550Z,2.20
2023-05-14T08:37:23.146Z,2.67
2023-05-14T08:39:50.745Z,2.30
2023-05-14T08:42:22.345Z,2.20
2023-05-14T08:44:54.141Z,2.10
2023-05-14T08:47:23.141Z,2.40
2023-05-14T08:49:59.283Z,2.60
2023-05-14T08:52:27.104Z,2.50
2023-05-14T08:54:55.965Z,2.37
2023-05-14T08:57:26.553Z,2.40
2023-05-14T08:59:54.964Z,2.23
2023-05-14T09:02:25.772Z,2.67
2023-05-14T09:04:56.954Z,2.40
2023-05-14T09:07:24.682Z,2.17
2023-05-14T09:09:53.003Z,2.20
2023-05-14T09:12:20.868Z,2.30
2023-05-14T09:14:50.237Z,1.87
2023-05-14T09:17:18.162Z,2.33
2023-05-14T09:19:49.008Z,2.77
2023-05-14T09:22:19.088Z,1.90
2023-05-14T09:24:46.996Z,2.33
2023-05-14T09:27:19.995Z,2.50
2023-05-14T09:29:49.009Z,2.60
2023-05-14T09:32:16.581Z,2.50
2023-05-14T09:34:44.153Z,2.20
2023-05-14T09:37:11.715Z,2.47
2023-05-14T09:39:40.681Z,2.47
2023-05-14T09:42:08.440Z,2.63
2023-05-14T09:44:37.957Z,2.53
2023-05-14T09:47:06.215Z,2.40
2023-05-14T09:49:33.813Z,3.17
2023-05-14T09:52:03.569Z,2.10
2023-05-14T09:54:32.900Z,2.80
2023-05-14T09:57:04.420Z,2.73
2023-05-14T09:59:32.126Z,2.70
2023-05-14T10:02:00.510Z,2.83
2023-05-14T10:04:28.289Z,2.63
2023-05-14T10:06:56.974Z,3.10
2023-05-14T10:09:28.552Z,3.17
2023-05-14T10:12:01.710Z,3.63
2023-05-14T10:14:37.059Z,2.90
2023-05-14T10:17:07.326Z,2.70
2023-05-14T10:19:35.847Z,2.87
2023-05-14T10:22:07.930Z,3.10
2023-05-14T10:24:38.706Z,3.10
2023-05-14T10:27:06.919Z,2.57
2023-05-14T10:29:37.561Z,2.63
2023-05-14T10:32:06.812Z,2.90
2023-05-14T10:34:37.518Z,3.00
2023-05-14T10:37:07.855Z,2.70
2023-05-14T10:39:47.459Z,2.63
2023-05-14T10:42:18.098Z,3.13
2023-05-14T10:44:54.093Z,2.60
2023-05-14T10:47:22.346Z,3.10
2023-05-14T10:49:50.484Z,3.17
2023-05-14T10:52:20.166Z,3.20
2023-05-14T10:54:51.548Z,2.63
2023-05-14T10:57:20.150Z,2.50
2023-05-14T10:59:48.907Z,2.80
2023-05-14T11:02:26.110Z,3.07
2023-05-14T11:04:56.623Z,2.93
2023-05-14T11:07:28.377Z,2.47
2023-05-14T11:10:02.002Z,3.10
2023-05-14T11:12:29.797Z,3.87
2023-05-14T11:14:58.329Z,3.40
2023-05-14T11:17:28.642Z,2.43
2023-05-14T11:19:57.287Z,2.93
2023-05-14T11:22:25.027Z,2.90
2023-05-14T11:24:52.899Z,2.50
2023-05-14T11:27:22.355Z,3.30
2023-05-14T11:29:50.288Z,2.87
2023-05-14T11:32:18.574Z,3.07
2023-05-14T11:34:47.781Z,2.93
2023-05-14T11:37:16.830Z,2.93
2023-05-14T11:39:48.784Z,3.20
2023-05-14T11:42:18.604Z,2.60
2023-05-14T11:44:47.708Z,3.13
2023-05-14T11:47:15.861Z,2.67
2023-05-14T11:49:43.471Z,2.70
2023-05-14T11:52:15.787Z,2.80
2023-05-14T11:54:45.194Z,2.93
2023-05-14T11:57:14.775Z,3.17
2023-05-14T11:59:42.588Z,3.30
2023-05-14T12:02:12.667Z,2.63
2023-05-14T12:04:41.796Z,3.23
2023-05-14T12:07:12.516Z,3.03
2023-05-14T12:09:44.263Z,3.23
2023-05-14T12:12:13.649Z,2.73
2023-05-14T12:14:43.532Z,2.90
2023-05-14T12:17:13.357Z,2.80
2023-05-14T12:19:42.058Z,3.30
2023-05-14T12:22:10.021Z,3.00
2023-05-14T12:24:39.328Z,2.73
2023-05-14T12:27:08.327Z,2.90
2023-05-14T12:29:40.010Z,3.33
2023-05-14T12:32:11.276Z,3.43
2023-05-14T12:34:39.570Z,3.50
2023-05-14T12:37:07.517Z,3.37
2023-05-14T12:39:35.686Z,2.90
2023-05-14T12:42:04.802Z,3.43
2023-05-14T12:44:32.421Z,3.33
2023-05-14T12:47:00.139Z,3.33
2023-05-14T12:49:28.024Z,2.73
2023-05-14T12:52:07.682Z,2.50
2023-05-14T12:54:43.694Z,2.83
2023-05-14T12:57:12.850Z,2.73
2023-05-14T12:59:41.040Z,2.63
2023-05-14T13:02:09.043Z,3.27
2023-05-14T13:04:37.275Z,2.43
2023-05-14T13:07:05.120Z,2.63
2023-05-14T13:09:32.782Z,2.53
2023-05-14T13:12:00.392Z,2.83
2023-05-14T13:14:29.362Z,2.80
2023-05-14T13:16:57.057Z,2.27
2023-05-14T13:19:24.963Z,2.70
2023-05-14T13:21:52.585Z,2.30
2023-05-14T13:24:20.206Z,2.57
2023-05-14T13:26:47.793Z,2.27
2023-05-14T13:29:15.357Z,2.30
2023-05-14T13:31:44.282Z,2.10
2023-05-14T13:34:13.015Z,2.30
2023-05-14T13:36:40.739Z,2.20
2023-05-14T13:39:08.420Z,1.93
2023-05-14T13:41:37.636Z,2.00
2023-05-14T13:44:05.768Z,1.83
2023-05-14T13:46:33.610Z,1.87
2023-05-14T13:49:02.631Z,1.80
2023-05-14T13:51:31.176Z,1.57
2023-05-14T13:53:58.838Z,1.60
2023-05-14T13:56:26.855Z,2.00
2023-05-14T13:58:54.510Z,2.00
2023-05-14T14:01:23.281Z,2.00
2023-05-14T14:03:50.979Z,2.13
2023-05-14T14:06:19.891Z,2.27
2023-05-14T14:08:47.469Z,2.00
2023-05-14T14:11:15.045Z,2.00
2023-05-14T14:13:43.804Z,1.67
2023-05-14T14:16:13.495Z,2.30
2023-05-14T14:18:42.954Z,1.83
2023-05-14T14:21:10.667Z,1.80
2023-05-14T14:23:39.611Z,1.77
2023-05-14T14:26:07.334Z,1.73
2023-05-14T14:28:35.272Z,1.60
2023-05-14T14:31:02.945Z,2.20
2023-05-14T14:33:30.538Z,1.67
2023-05-14T14:35:58.130Z,1.83
2023-05-14T14:38:25.924Z,1.57
2023-05-14T14:40:54.881Z,1.63
2023-05-14T14:43:22.609Z,2.20
2023-05-14T14:45:50.262Z,2.10
2023-05-14T14:48:28.110Z,2.10
2023-05-14T14:50:56.087Z,2.20
2023-05-14T14:53:24.598Z,2.00
2023-05-14T14:55:52.608Z,2.17
2023-05-14T14:58:21.888Z,2.10
2023-05-14T15:00:50.959Z,1.83
2023-05-14T15:03:18.888Z,2.10
2023-05-14T15:05:46.984Z,1.70
2023-05-14T15:08:14.768Z,1.97
2023-05-14T15:10:42.472Z,2.30
2023-05-14T15:13:11.125Z,2.40
2023-05-14T15:15:40.113Z,2.00
2023-05-14T15:18:07.797Z,2.27
2023-05-14T15:20:35.502Z,2.20
2023-05-14T15:23:03.670Z,2.20
2023-05-14T15:25:31.384Z,2.20
2023-05-14T15:27:58.992Z,2.80
2023-05-14T15:30:26.587Z,2.20
2023-05-14T15:32:56.508Z,2.27
2023-05-14T15:35:24.584Z,2.23
2023-05-14T15:37:52.450Z,2.30
2023-05-14T15:40:20.098Z,2.13
2023-05-14T15:42:47.838Z,1.90
2023-05-14T15:45:15.464Z,2.17
2023-05-14T15:47:44.127Z,1.90
2023-05-14T15:50:13.235Z,2.17
2023-05-14T15:52:41.427Z,1.77
2023-05-14T15:55:10.044Z,2.30
2023-05-14T15:57:37.687Z,2.13
2023-05-14T16:00:10.376Z,2.50
2023-05-14T16:02:38.147Z,2.60
2023-05-14T16:05:08.279Z,2.40
2023-05-14T16:07:37.551Z,1.93
2023-05-14T16:10:05.923Z,2.00
2023-05-14T16:12:33.691Z,2.00
2023-05-14T16:15:01.568Z,2.33
2023-05-14T16:17:30.381Z,2.07
2023-05-14T16:19:58.012Z,2.27
2023-05-14T16:22:25.612Z,2.43
2023-05-14T16:24:54.528Z,2.10
2023-05-14T16:27:22.211Z,2.07
2023-05-14T16:29:49.803Z,2.10
2023-05-14T16:32:17.695Z,2.33
2023-05-14T16:34:49.646Z,2.50
2023-05-14T16:37:17.457Z,2.87
2023-05-14T16:39:45.023Z,2.33
2023-05-14T16:42:14.005Z,2.30
2023-05-14T16:44:41.674Z,2.60
2023-05-14T16:47:09.313Z,2.90
2023-05-14T16:49:37.572Z,2.87
2023-05-14T16:52:06.049Z,2.20
2023-05-14T16:54:33.696Z,2.53
2023-05-14T16:57:01.344Z,2.47
2023-05-14T16:59:30.296Z,2.47
2023-05-14T17:01:57.973Z,2.80
2023-05-14T17:04:26.573Z,2.40
2023-05-14T17:06:54.604Z,2.40
2023-05-14T17:09:22.250Z,2.70
2023-05-14T17:11:49.855Z,2.43
2023-05-14T17:14:17.476Z,3.07
2023-05-14T17:16:46.653Z,2.97
2023-05-14T17:19:14.495Z,3.53
2023-05-14T17:21:42.265Z,3.10
2023-05-14T17:24:09.911Z,2.53
2023-05-14T17:26:38.573Z,3.20
2023-05-14T17:29:06.256Z,2.93
2023-05-14T17:31:33.907Z,2.67
2023-05-14T17:34:02.907Z,3.43
2023-05-14T17:36:31.815Z,2.47
2023-05-14T17:38:59.585Z,2.57
2023-05-14T17:41:27.246Z,2.70
2023-05-14T17:43:54.852Z,3.00
2023-05-14T17:46:22.526Z,3.60
2023-05-14T17:48:50.163Z,2.80
2023-05-14T17:51:19.187Z,3.17
2023-05-14T17:53:47.206Z,2.83
2023-05-14T17:56:17.070Z,2.77
2023-05-14T17:58:44.827Z,2.37
2023-05-14T18:01:12.539Z,3.17
2023-05-14T18:03:40.341Z,3.17
2023-05-14T18:06:08.022Z,2.80
2023-05-14T18:08:37.072Z,2.97
2023-05-14T18:11:04.759Z,2.67
2023-05-14T18:13:32.443Z,2.70
2023-05-14T18:16:01.138Z,3.00
2023-05-14T18:18:28.874Z,2.50
2023-05-14T18:20:56.608Z,3.10
2023-05-14T18:23:24.344Z,2.60
2023-05-14T18:25:53.398Z,2.70
2023-05-14T18:28:21.458Z,2.90
2023-05-14T18:30:50.108Z,3.30
2023-05-14T18:33:18.102Z,3.30
2023-05-14T18:35:45.786Z,2.57
2023-05-14T18:38:13.763Z,2.63
2023-05-14T18:40:41.639Z,2.63
2023-05-14T18:43:11.424Z,2.70
2023-05-14T18:45:39.813Z,2.60
2023-05-14T18:48:07.749Z,2.93
2023-05-14T18:50:37.389Z,2.80
2023-05-14T18:53:06.604Z,3.10
2023-05-14T18:55:35.966Z,3.30
2023-05-14T18:58:03.794Z,2.90
2023-05-14T19:00:32.818Z,2.73
2023-05-14T19:03:00.642Z,2.80
2023-05-14T19:05:28.477Z,3.47
2023-05-14T19:07:56.217Z,3.10
2023-05-14T19:10:23.905Z,3.77
2023-05-14T19:12:51.580Z,3.63
2023-05-14T19:15:19.489Z,3.43
2023-05-14T19:17:49.052Z,3.47
2023-05-14T19:20:16.753Z,3.20
2023-05-14T19:22:44.401Z,3.37
2023-05-14T19:25:12.195Z,2.77
2023-05-14T19:27:40.148Z,2.70
2023-05-14T19:30:09.045Z,2.37
2023-05-14T19:32:37.940Z,2.93
2023-05-14T19:35:07.631Z,2.63
2023-05-14T19:37:35.422Z,2.93
2023-05-14T19:40:04.831Z,2.60
2023-05-14T19:42:32.626Z,2.97
2023-05-14T19:45:00.225Z,3.30
2023-05-14T19:47:28.713Z,3.80
2023-05-14T19:49:56.460Z,3.50
2023-05-14T19:52:25.473Z,3.50
2023-05-14T19:54:53.125Z,3.63
2023-05-14T19:57:20.764Z,3.60
2023-05-14T19:59:48.392Z,3.23
2023-05-14T20:02:18.092Z,3.10
2023-05-14T20:04:45.974Z,3.53
2023-05-14T20:07:15.454Z,3.67
2023-05-14T20:09:44.435Z,4.00
2023-05-14T20:12:12.850Z,3.20
2023-05-14T20:14:41.001Z,3.17
2023-05-14T20:17:08.768Z,3.43
2023-05-14T20:19:36.384Z,3.23
2023-05-14T20:22:04.139Z,3.20
2023-05-14T20:24:31.722Z,3.57
2023-05-14T20:27:00.673Z,4.17
2023-05-14T20:29:28.261Z,3.13
2023-05-14T20:31:56.817Z,4.40
2023-05-14T20:34:24.587Z,3.63
2023-05-14T20:36:52.812Z,3.43
2023-05-14T20:39:20.537Z,3.83
2023-05-14T20:41:48.170Z,3.27
2023-05-14T20:44:18.464Z,4.07
2023-05-14T20:46:48.245Z,3.43
2023-05-14T20:49:15.931Z,3.57
2023-05-14T20:51:43.560Z,3.47
2023-05-14T20:54:11.149Z,3.63
2023-05-14T20:56:38.735Z,4.30
2023-05-14T20:59:06.408Z,4.17
2023-05-14T21:01:35.469Z,3.90
2023-05-14T21:04:03.302Z,4.30
2023-05-14T21:06:31.128Z,4.30
2023-05-14T21:08:58.714Z,3.90
2023-05-14T21:11:26.304Z,3.60
2023-05-14T21:13:53.908Z,4.27
2023-05-14T21:16:21.632Z,4.50
2023-05-14T21:18:50.631Z,4.53
2023-05-14T21:21:18.246Z,4.43
2023-05-14T21:23:45.882Z,4.23
2023-05-14T21:26:13.566Z,3.83
2023-05-14T21:28:41.227Z,4.80
2023-05-14T21:31:08.942Z,4.07
2023-05-14T21:33:36.630Z,4.50
2023-05-14T21:36:06.371Z,4.30
2023-05-14T21:38:34.173Z,4.67
2023-05-14T21:41:02.062Z,4.17
2023-05-14T21:43:29.664Z,4.87
2023-05-14T21:45:57.590Z,4.07
2023-05-14T21:48:25.368Z,4.13
2023-05-14T21:50:53.057Z,3.83
2023-05-14T21:53:22.115Z,4.07
2023-05-14T21:55:49.831Z,4.43
2023-05-14T21:58:17.456Z,5.07
2023-05-14T22:00:45.052Z,4.70
2023-05-14T22:03:12.816Z,4.93
2023-05-14T22:05:40.510Z,5.13
2023-05-14T22:08:08.088Z,4.70
2023-05-14T22:10:37.027Z,4.63
2023-05-14T22:13:04.654Z,5.00
2023-05-14T22:15:32.233Z,4.73
2023-05-14T22:17:59.858Z,4.40
2023-05-14T22:20:27.466Z,5.47
2023-05-14T22:22:55.121Z,4.97
2023-05-14T22:25:23.136Z,4.77
2023-05-14T22:27:52.235Z,4.80
2023-05-14T22:30:19.828Z,4.67
2023-05-14T22:32:47.457Z,6.20
2023-05-14T22:35:15.461Z,5.53
2023-05-14T22:37:43.087Z,4.90
2023-05-14T22:40:13.415Z,5.33
2023-05-14T22:42:41.079Z,5.13
2023-05-14T22:45:11.037Z,4.97
2023-05-14T22:47:38.884Z,4.83
2023-05-14T22:50:11.284Z,5.70
2023-05-14T22:52:38.995Z,5.60
2023-05-14T22:55:08.016Z,5.57
2023-05-14T22:57:35.695Z,6.10
2023-05-14T23:00:04.399Z,5.70
2023-05-14T23:02:33.479Z,5.00
2023-05-14T23:05:01.195Z,4.80
2023-05-14T23:07:28.863Z,4.60
2023-05-14T23:09:56.509Z,5.53
2023-05-14T23:12:24.145Z,5.60
2023-05-14T23:14:51.809Z,5.50
2023-05-14T23:17:19.446Z,4.83
2023-05-14T23:19:48.424Z,5.00
2023-05-14T23:22:16.018Z,5.77
2023-05-14T23:24:43.656Z,5.60
2023-05-14T23:27:12.035Z,5.10
2023-05-14T23:29:39.654Z,4.87
2023-05-14T23:32:08.213Z,5.53
2023-05-14T23:34:36.038Z,5.73
2023-05-14T23:37:05.244Z,5.50
2023-05-14T23:39:32.958Z,5.47
2023-05-14T23:42:00.594Z,5.23
2023-05-14T23:44:28.183Z,6.10
2023-05-14T23:46:55.911Z,4.90
2023-05-14T23:49:23.526Z,5.43
2023-05-14T23:51:51.081Z,5.73
2023-05-14T23:54:20.047Z,5.80
2023-05-14T23:56:47.841Z,5.47
2023-05-14T23:59:15.477Z,5.77
